createdAt,value
2023-05-20T00:02:11.403Z,3.43
2023-05-20T00:04:38.018Z,3.33
2023-05-20T00:07:04.709Z,3.07
2023-05-20T00:09:31.255Z,4.20
2023-05-20T00:11:57.815Z,4.97
2023-05-20T00:14:24.442Z,4.00
2023-05-20T00:16:53.401Z,3.63
2023-05-20T00:19:20.069Z,4.73
2023-05-20T00:21:46.689Z,5.90
2023-05-20T00:24:13.248Z,4.23
2023-05-20T00:26:39.843Z,5.83
2023-05-20T00:29:06.506Z,3.47
2023-05-20T00:31:33.126Z,3.87
2023-05-20T00:34:00.002Z,4.27
2023-05-20T00:36:27.514Z,4.07
2023-05-20T00:38:54.085Z,3.40
2023-05-20T00:41:21.674Z,6.87
2023-05-20T00:43:48.342Z,2.40
2023-05-20T00:46:14.943Z,2.37
2023-05-20T00:48:43.023Z,2.63
2023-05-20T00:51:10.988Z,2.83
2023-05-20T00:53:37.618Z,5.10
2023-05-20T00:56:04.730Z,3.37
2023-05-20T00:58:32.189Z,2.77
2023-05-20T01:00:58.775Z,2.90
2023-05-20T01:03:25.934Z,3.30
2023-05-20T01:05:52.586Z,10.50
2023-05-20T01:08:19.295Z,2.57
2023-05-20T01:10:47.805Z,4.33
2023-05-20T01:13:16.831Z,3.37
2023-05-20T01:15:44.416Z,4.00
2023-05-20T01:18:11.959Z,5.33
2023-05-20T01:20:39.577Z,4.17
2023-05-20T01:23:06.233Z,3.63
2023-05-20T01:25:32.943Z,3.17
2023-05-20T01:27:59.741Z,3.83
2023-05-20T01:30:31.218Z,3.97
2023-05-20T01:33:00.413Z,2.83
2023-05-20T01:35:27.251Z,8.73
2023-05-20T01:37:54.113Z,2.80
2023-05-20T01:40:21.365Z,2.67
2023-05-20T01:42:53.252Z,4.23
2023-05-20T01:45:20.422Z,4.33
2023-05-20T01:47:47.045Z,5.10
2023-05-20T01:50:13.736Z,2.83
2023-05-20T01:52:40.387Z,3.60
2023-05-20T01:55:09.268Z,4.63
2023-05-20T01:57:36.013Z,2.53
2023-05-20T02:00:02.986Z,3.03
2023-05-20T02:02:29.694Z,3.13
2023-05-20T02:04:56.390Z,5.27
2023-05-20T02:07:22.971Z,2.70
2023-05-20T02:09:49.549Z,4.97
2023-05-20T02:12:19.405Z,2.73
2023-05-20T02:14:46.828Z,3.70
2023-05-20T02:17:17.166Z,3.20
2023-05-20T02:19:47.304Z,5.80
2023-05-20T02:22:14.233Z,3.83
2023-05-20T02:24:40.827Z,5.37
2023-05-20T02:27:07.693Z,4.63
2023-05-20T02:29:34.317Z,5.00
2023-05-20T02:32:01.207Z,5.07
2023-05-20T02:34:28.244Z,6.83
2023-05-20T02:36:54.956Z,6.73
2023-05-20T02:39:21.503Z,4.63
2023-05-20T02:41:48.273Z,4.43
2023-05-20T02:44:14.998Z,2.57
2023-05-20T02:46:41.726Z,3.77
2023-05-20T02:49:08.309Z,5.73
2023-05-20T02:51:35.006Z,2.93
2023-05-20T02:54:01.563Z,4.00
2023-05-20T02:56:28.796Z,3.30
2023-05-20T02:58:55.422Z,3.97
2023-05-20T03:01:22.158Z,3.60
2023-05-20T03:03:48.931Z,5.87
2023-05-20T03:06:15.684Z,2.67
2023-05-20T03:08:43.017Z,2.50
2023-05-20T03:11:09.730Z,4.10
2023-05-20T03:13:36.402Z,4.60
2023-05-20T03:16:03.173Z,2.93
2023-05-20T03:18:32.280Z,4.60
2023-05-20T03:20:58.829Z,5.97
2023-05-20T03:23:25.456Z,2.77
2023-05-20T03:25:52.473Z,4.33
2023-05-20T03:28:19.095Z,4.00
2023-05-20T03:30:46.461Z,3.97
2023-05-20T03:33:13.035Z,3.20
2023-05-20T03:35:39.514Z,3.07
2023-05-20T03:38:06.217Z,4.27
2023-05-20T03:40:32.812Z,3.77
2023-05-20T03:42:59.353Z,3.00
2023-05-20T03:45:25.863Z,3.70
2023-05-20T03:47:52.539Z,5.13
2023-05-20T03:50:19.115Z,6.80
2023-05-20T03:52:45.639Z,3.67
2023-05-20T03:55:15.409Z,7.90
2023-05-20T03:57:41.983Z,5.60
2023-05-20T04:00:14.584Z,4.30
2023-05-20T04:02:41.626Z,2.73
2023-05-20T04:05:11.857Z,3.47
2023-05-20T04:07:38.514Z,7.20
2023-05-20T04:10:05.621Z,4.17
2023-05-20T04:12:36.334Z,2.37
2023-05-20T04:15:03.031Z,4.50
2023-05-20T04:17:30.329Z,5.13
2023-05-20T04:20:00.207Z,5.57
2023-05-20T04:22:27.240Z,4.30
2023-05-20T04:24:53.991Z,6.93
2023-05-20T04:27:21.800Z,4.77
2023-05-20T04:29:48.668Z,4.77
2023-05-20T04:32:18.802Z,4.60
2023-05-20T04:34:46.302Z,4.20
2023-05-20T04:37:13.364Z,2.80
2023-05-20T04:39:40.484Z,3.83
2023-05-20T04:42:07.172Z,6.73
2023-05-20T04:44:33.827Z,5.03
2023-05-20T04:47:00.534Z,7.10
2023-05-20T04:49:27.141Z,6.87
2023-05-20T04:51:55.905Z,4.30
2023-05-20T04:54:22.702Z,7.13
2023-05-20T04:56:49.227Z,5.90
2023-05-20T04:59:16.200Z,5.90
2023-05-20T05:01:42.982Z,4.37
2023-05-20T05:04:09.831Z,6.33
2023-05-20T05:06:39.615Z,5.20
2023-05-20T05:09:06.176Z,9.83
2023-05-20T05:11:32.970Z,4.83
2023-05-20T05:13:59.613Z,4.27
2023-05-20T05:16:26.324Z,3.73
2023-05-20T05:18:53.068Z,7.30
2023-05-20T05:21:19.651Z,4.13
2023-05-20T05:23:46.358Z,3.57
2023-05-20T05:26:12.975Z,5.70
2023-05-20T05:28:41.389Z,3.90
2023-05-20T05:31:08.349Z,4.17
2023-05-20T05:33:34.999Z,5.63
2023-05-20T05:36:02.724Z,4.90
2023-05-20T05:38:29.281Z,4.60
2023-05-20T05:40:55.899Z,5.03
2023-05-20T05:43:22.387Z,7.57
2023-05-20T05:45:48.886Z,6.10
2023-05-20T05:48:15.737Z,3.43
2023-05-20T05:50:46.284Z,4.90
2023-05-20T05:53:13.030Z,5.83
2023-05-20T05:55:39.578Z,4.43
2023-05-20T05:58:06.137Z,6.00
2023-05-20T06:00:32.717Z,5.90
2023-05-20T06:02:59.373Z,6.67
2023-05-20T06:05:28.924Z,5.80
2023-05-20T06:07:56.124Z,4.10
2023-05-20T06:10:22.712Z,4.10
2023-05-20T06:12:49.332Z,6.10
2023-05-20T06:15:16.475Z,5.70
2023-05-20T06:17:43.022Z,4.73
2023-05-20T06:20:09.786Z,7.07
2023-05-20T06:22:36.432Z,6.50
2023-05-20T06:25:03.099Z,12.93
2023-05-20T06:27:29.688Z,5.80
2023-05-20T06:29:56.278Z,4.47
2023-05-20T06:32:23.649Z,5.70
2023-05-20T06:34:50.359Z,6.87
2023-05-20T06:37:16.957Z,4.40
2023-05-20T06:39:44.253Z,3.60
2023-05-20T06:42:10.834Z,6.47
2023-05-20T06:44:37.354Z,9.17
2023-05-20T06:47:04.019Z,5.80
2023-05-20T06:49:30.541Z,9.03
2023-05-20T06:51:57.110Z,7.80
2023-05-20T06:54:23.666Z,5.03
2023-05-20T06:56:50.181Z,3.67
2023-05-20T06:59:16.728Z,3.87
2023-05-20T07:01:43.498Z,5.13
2023-05-20T07:04:10.210Z,6.30
2023-05-20T07:06:37.336Z,4.50
2023-05-20T07:09:03.989Z,5.83
2023-05-20T07:11:30.547Z,7.67
2023-05-20T07:13:57.303Z,5.73
2023-05-20T07:16:23.933Z,6.17
2023-05-20T07:18:50.722Z,3.53
2023-05-20T07:21:18.698Z,9.87
2023-05-20T07:23:45.269Z,6.10
2023-05-20T07:26:11.821Z,7.87
2023-05-20T07:28:38.958Z,6.13
2023-05-20T07:31:05.637Z,6.53
2023-05-20T07:33:32.304Z,6.20
2023-05-20T07:35:58.825Z,7.13
2023-05-20T07:38:25.353Z,5.97
2023-05-20T07:40:52.077Z,4.10
2023-05-20T07:43:22.719Z,4.50
2023-05-20T07:45:49.583Z,7.03
2023-05-20T07:48:17.469Z,7.90
2023-05-20T07:50:44.724Z,8.87
2023-05-20T07:53:11.592Z,6.97
2023-05-20T07:55:38.138Z,5.50
2023-05-20T07:58:04.761Z,7.37
2023-05-20T08:00:31.738Z,8.07
2023-05-20T08:02:58.404Z,7.53
2023-05-20T08:05:25.069Z,7.93
2023-05-20T08:07:51.619Z,9.73
2023-05-20T08:10:20.634Z,5.80
2023-05-20T08:12:47.227Z,6.73
2023-05-20T08:15:14.027Z,6.13
2023-05-20T08:17:41.021Z,7.23
2023-05-20T08:20:09.028Z,7.97
2023-05-20T08:22:37.875Z,6.87
2023-05-20T08:25:07.118Z,6.27
2023-05-20T08:27:33.668Z,10.13
2023-05-20T08:30:00.964Z,6.90
2023-05-20T08:32:27.766Z,11.03
2023-05-20T08:34:54.309Z,9.47
2023-05-20T08:37:20.938Z,7.40
2023-05-20T08:39:49.340Z,7.13
2023-05-20T08:42:16.975Z,10.30
2023-05-20T08:44:46.456Z,6.67
2023-05-20T08:47:13.028Z,9.57
2023-05-20T08:49:39.606Z,5.30
2023-05-20T08:52:06.654Z,7.43
2023-05-20T08:54:43.371Z,8.30
2023-05-20T08:57:10.907Z,8.50
2023-05-20T08:59:37.626Z,6.23
2023-05-20T09:02:04.327Z,6.83
2023-05-20T09:04:31.085Z,9.13
2023-05-20T09:06:57.656Z,7.87
2023-05-20T09:09:24.194Z,6.07
2023-05-20T09:11:50.826Z,5.67
2023-05-20T09:14:17.343Z,11.30
2023-05-20T09:16:44.006Z,7.80
2023-05-20T09:19:11.631Z,10.03
2023-05-20T09:21:39.154Z,6.40
2023-05-20T09:24:06.033Z,9.50
2023-05-20T09:26:33.195Z,8.70
2023-05-20T09:29:00.043Z,5.90
2023-05-20T09:31:35.868Z,7.30
2023-05-20T09:34:03.029Z,9.70
2023-05-20T09:36:31.936Z,8.33
2023-05-20T09:39:00.581Z,7.97
2023-05-20T09:41:32.509Z,12.40
2023-05-20T09:43:59.785Z,8.13
2023-05-20T09:46:29.096Z,8.87
2023-05-20T09:48:55.754Z,12.47
2023-05-20T09:51:23.784Z,12.93
2023-05-20T09:53:51.394Z,9.03
2023-05-20T09:56:20.358Z,7.37
2023-05-20T09:58:48.877Z,6.70
2023-05-20T10:01:15.438Z,8.13
2023-05-20T10:03:44.260Z,8.53
2023-05-20T10:06:11.101Z,9.17
2023-05-20T10:08:43.852Z,11.60
2023-05-20T10:11:25.753Z,15.77
2023-05-20T10:14:01.412Z,7.00
2023-05-20T10:16:48.195Z,6.30
2023-05-20T10:19:30.023Z,10.10
2023-05-20T10:22:06.742Z,8.30
2023-05-20T10:24:38.205Z,5.73
2023-05-20T10:27:08.618Z,6.80
2023-05-20T10:29:50.823Z,10.17
2023-05-20T10:32:33.625Z,7.30
2023-05-20T10:35:05.929Z,8.40
2023-05-20T10:37:33.627Z,7.60
2023-05-20T10:40:09.745Z,12.63
2023-05-20T10:42:36.284Z,7.20
2023-05-20T10:45:03.353Z,8.57
2023-05-20T10:47:30.172Z,7.70
2023-05-20T10:49:56.711Z,6.83
2023-05-20T10:52:23.725Z,8.37
2023-05-20T10:54:57.454Z,7.00
2023-05-20T10:57:24.636Z,7.63
2023-05-20T10:59:51.544Z,8.17
2023-05-20T11:02:18.465Z,8.53
2023-05-20T11:04:45.504Z,7.53
2023-05-20T11:07:12.068Z,8.43
2023-05-20T11:09:39.333Z,8.63
2023-05-20T11:12:06.461Z,9.23
2023-05-20T11:14:33.331Z,6.37
2023-05-20T11:17:00.522Z,7.10
2023-05-20T11:19:27.852Z,8.10
2023-05-20T11:21:54.543Z,7.90
2023-05-20T11:24:28.071Z,9.63
2023-05-20T11:26:55.032Z,7.33
2023-05-20T11:29:22.593Z,8.67
2023-05-20T11:31:52.759Z,6.47
2023-05-20T11:34:27.302Z,13.17
2023-05-20T11:36:59.101Z,8.97
2023-05-20T11:39:27.738Z,5.97
2023-05-20T11:41:54.370Z,11.27
2023-05-20T11:44:21.303Z,7.57
2023-05-20T11:46:48.640Z,7.47
2023-05-20T11:49:15.817Z,8.83
2023-05-20T11:51:43.447Z,7.83
2023-05-20T11:54:10.749Z,7.10
2023-05-20T11:56:37.844Z,6.57
2023-05-20T11:59:08.511Z,6.57
2023-05-20T12:01:40.935Z,7.87
2023-05-20T12:04:08.325Z,6.77
2023-05-20T12:06:37.195Z,10.53
2023-05-20T12:09:07.550Z,8.30
2023-05-20T12:11:37.724Z,6.23
2023-05-20T12:14:04.706Z,5.77
2023-05-20T12:16:32.334Z,9.53
2023-05-20T12:18:59.030Z,10.07
2023-05-20T12:21:28.057Z,6.53
2023-05-20T12:23:58.169Z,6.73
2023-05-20T12:26:26.038Z,7.07
2023-05-20T12:28:52.864Z,6.43
2023-05-20T12:31:19.791Z,8.50
2023-05-20T12:33:46.654Z,6.60
2023-05-20T12:36:15.764Z,6.00
2023-05-20T12:38:42.360Z,5.97
2023-05-20T12:41:08.887Z,6.20
2023-05-20T12:43:38.543Z,6.83
2023-05-20T12:46:05.192Z,5.23
2023-05-20T12:48:31.914Z,6.57
2023-05-20T12:50:58.529Z,7.07
2023-05-20T12:53:25.557Z,4.97
2023-05-20T12:55:52.335Z,5.17
2023-05-20T12:58:18.908Z,7.53
2023-05-20T13:00:45.564Z,9.67
2023-05-20T13:03:12.194Z,5.97
2023-05-20T13:05:38.871Z,8.87
2023-05-20T13:08:05.537Z,10.60
2023-05-20T13:10:33.236Z,5.87
2023-05-20T13:13:00.060Z,5.17
2023-05-20T13:15:26.649Z,4.93
2023-05-20T13:17:53.280Z,6.23
2023-05-20T13:20:20.192Z,9.83
2023-05-20T13:22:46.817Z,4.70
2023-05-20T13:25:13.368Z,6.70
2023-05-20T13:27:40.595Z,7.37
2023-05-20T13:30:07.766Z,5.20
2023-05-20T13:32:34.541Z,9.13
2023-05-20T13:35:01.144Z,5.87
2023-05-20T13:37:27.754Z,4.57
2023-05-20T13:39:54.380Z,7.20
2023-05-20T13:42:21.656Z,6.67
2023-05-20T13:44:48.207Z,6.77
2023-05-20T13:47:14.880Z,5.97
2023-05-20T13:49:41.450Z,4.23
2023-05-20T13:52:08.043Z,5.97
2023-05-20T13:54:34.732Z,7.33
2023-05-20T13:57:01.791Z,4.97
2023-05-20T13:59:28.550Z,6.80
2023-05-20T14:01:55.201Z,6.23
2023-05-20T14:04:22.391Z,8.67
2023-05-20T14:06:48.987Z,6.23
2023-05-20T14:09:15.592Z,6.47
2023-05-20T14:11:42.233Z,5.53
2023-05-20T14:14:08.817Z,7.03
2023-05-20T14:16:35.596Z,3.97
2023-05-20T14:19:02.332Z,4.57
2023-05-20T14:21:28.884Z,5.10
2023-05-20T14:23:55.456Z,5.57
2023-05-20T14:26:22.007Z,4.07
2023-05-20T14:28:48.569Z,4.73
2023-05-20T14:31:15.245Z,5.07
2023-05-20T14:33:41.814Z,5.43
2023-05-20T14:36:08.368Z,8.20
2023-05-20T14:38:34.961Z,4.87
2023-05-20T14:41:01.546Z,2.80
2023-05-20T14:43:28.432Z,2.87
2023-05-20T14:45:55.014Z,4.73
2023-05-20T14:48:21.582Z,5.20
2023-05-20T14:50:49.699Z,6.40
2023-05-20T14:53:16.755Z,2.87
2023-05-20T14:55:43.320Z,3.87
2023-05-20T14:58:09.849Z,3.97
2023-05-20T15:00:36.563Z,3.17
2023-05-20T15:03:03.486Z,6.73
2023-05-20T15:05:30.091Z,4.30
2023-05-20T15:07:57.470Z,6.13
2023-05-20T15:10:24.081Z,4.53
2023-05-20T15:12:51.463Z,4.73
2023-05-20T15:15:18.310Z,3.73
2023-05-20T15:17:44.879Z,4.27
2023-05-20T15:20:12.446Z,5.63
2023-05-20T15:22:41.849Z,6.50
2023-05-20T15:25:08.517Z,4.07
2023-05-20T15:27:35.273Z,6.23
2023-05-20T15:30:02.217Z,9.10
2023-05-20T15:32:28.802Z,6.97
2023-05-20T15:34:55.484Z,4.07
2023-05-20T15:37:22.482Z,8.17
2023-05-20T15:39:49.006Z,5.43
2023-05-20T15:42:18.348Z,4.80
2023-05-20T15:44:45.354Z,5.80
2023-05-20T15:47:11.963Z,3.73
2023-05-20T15:49:39.084Z,5.23
2023-05-20T15:52:05.796Z,4.80
2023-05-20T15:54:33.085Z,5.00
2023-05-20T15:56:59.753Z,4.57
2023-05-20T15:59:26.358Z,4.50
2023-05-20T16:01:53.163Z,5.23
2023-05-20T16:04:20.463Z,5.93
2023-05-20T16:06:47.393Z,6.70
2023-05-20T16:09:14.038Z,6.30
2023-05-20T16:11:40.579Z,4.40
2023-05-20T16:14:07.145Z,4.90
2023-05-20T16:16:35.858Z,7.47
2023-05-20T16:19:02.906Z,5.50
2023-05-20T16:21:29.558Z,4.70
2023-05-20T16:23:56.148Z,3.77
2023-05-20T16:26:22.924Z,3.70
2023-05-20T16:28:49.562Z,4.10
2023-05-20T16:31:16.457Z,4.13
2023-05-20T16:33:43.065Z,3.93
2023-05-20T16:36:09.613Z,3.90
2023-05-20T16:38:36.681Z,4.03
2023-05-20T16:41:03.325Z,4.73
2023-05-20T16:43:29.922Z,5.03
2023-05-20T16:45:56.597Z,7.20
2023-05-20T16:48:23.219Z,3.87
2023-05-20T16:50:49.924Z,4.87
2023-05-20T16:53:16.812Z,3.77
2023-05-20T16:55:43.440Z,5.73
2023-05-20T16:58:09.982Z,6.53
2023-05-20T17:00:36.553Z,5.00
2023-05-20T17:03:03.256Z,4.43
2023-05-20T17:05:29.871Z,4.07
2023-05-20T17:08:00.172Z,5.03
2023-05-20T17:10:28.675Z,5.80
2023-05-20T17:12:55.691Z,6.93
2023-05-20T17:15:23.740Z,6.93
2023-05-20T17:17:50.893Z,5.03
2023-05-20T17:20:17.635Z,5.53
2023-05-20T17:22:44.268Z,4.50
2023-05-20T17:25:11.147Z,8.47
2023-05-20T17:27:40.193Z,5.37
2023-05-20T17:30:07.162Z,4.30
2023-05-20T17:32:35.027Z,4.10
2023-05-20T17:35:02.323Z,6.17
2023-05-20T17:37:29.056Z,5.40
2023-05-20T17:39:56.362Z,4.47
2023-05-20T17:42:23.033Z,5.20
2023-05-20T17:44:49.594Z,3.50
2023-05-20T17:47:16.288Z,6.70
2023-05-20T17:49:42.861Z,5.17
2023-05-20T17:52:09.564Z,6.87
2023-05-20T17:54:36.180Z,8.43
2023-05-20T17:57:03.049Z,5.73
2023-05-20T17:59:29.671Z,3.67
2023-05-20T18:01:57.396Z,5.20
2023-05-20T18:04:23.951Z,4.10
2023-05-20T18:06:50.585Z,3.60
2023-05-20T18:09:17.872Z,4.47
2023-05-20T18:11:44.446Z,5.13
2023-05-20T18:14:11.410Z,3.63
2023-05-20T18:16:38.018Z,5.17
2023-05-20T18:19:04.686Z,6.53
2023-05-20T18:21:38.719Z,8.90
2023-05-20T18:24:05.745Z,5.13
2023-05-20T18:26:32.499Z,3.87
2023-05-20T18:28:59.416Z,4.17
2023-05-20T18:31:26.210Z,11.77
2023-05-20T18:34:02.089Z,9.40
2023-05-20T18:36:30.321Z,5.37
2023-05-20T18:38:56.913Z,4.93
2023-05-20T18:41:27.070Z,4.60
2023-05-20T18:43:58.846Z,5.20
2023-05-20T18:46:25.844Z,4.17
2023-05-20T18:48:52.558Z,8.67
2023-05-20T18:51:19.122Z,5.53
2023-05-20T18:53:45.729Z,5.57
2023-05-20T18:56:12.260Z,8.30
2023-05-20T18:58:38.819Z,4.00
2023-05-20T19:01:05.448Z,7.40
2023-05-20T19:03:32.450Z,4.93
2023-05-20T19:05:59.068Z,10.27
2023-05-20T19:08:27.532Z,5.30
2023-05-20T19:10:54.124Z,4.50
2023-05-20T19:13:21.824Z,5.37
2023-05-20T19:15:48.489Z,6.27
2023-05-20T19:18:15.114Z,5.17
2023-05-20T19:20:41.784Z,6.13
2023-05-20T19:23:08.308Z,5.03
2023-05-20T19:25:35.431Z,5.83
2023-05-20T19:28:02.357Z,5.80
2023-05-20T19:30:28.943Z,5.13
2023-05-20T19:32:55.762Z,6.93
2023-05-20T19:35:22.387Z,6.00
2023-05-20T19:37:49.316Z,5.67
2023-05-20T19:40:15.939Z,6.03
2023-05-20T19:42:42.479Z,5.87
2023-05-20T19:45:09.351Z,8.13
2023-05-20T19:47:36.650Z,6.90
2023-05-20T19:50:03.641Z,6.30
2023-05-20T19:52:31.592Z,7.23
2023-05-20T19:54:58.403Z,7.87
2023-05-20T19:57:25.015Z,7.37
2023-05-20T19:59:53.725Z,8.00
2023-05-20T20:02:21.526Z,7.33
2023-05-20T20:04:48.287Z,6.27
2023-05-20T20:07:15.115Z,9.00
2023-05-20T20:09:42.095Z,8.10
2023-05-20T20:12:09.402Z,7.00
2023-05-20T20:14:36.181Z,6.33
2023-05-20T20:17:03.407Z,10.70
2023-05-20T20:19:30.029Z,7.33
2023-05-20T20:21:58.290Z,8.10
2023-05-20T20:24:26.370Z,9.00
2023-05-20T20:26:54.431Z,9.30
2023-05-20T20:29:24.489Z,8.67
2023-05-20T20:31:51.734Z,7.90
2023-05-20T20:34:18.539Z,7.10
2023-05-20T20:36:47.544Z,8.83
2023-05-20T20:39:19.928Z,8.00
2023-05-20T20:41:49.132Z,7.27
2023-05-20T20:44:17.221Z,8.57
2023-05-20T20:46:43.834Z,9.73
2023-05-20T20:49:10.584Z,7.67
2023-05-20T20:51:37.158Z,9.67
2023-05-20T20:54:03.801Z,8.03
2023-05-20T20:56:30.325Z,8.23
2023-05-20T20:58:57.416Z,13.33
2023-05-20T21:01:24.038Z,9.33
2023-05-20T21:03:54.718Z,9.67
2023-05-20T21:06:21.711Z,7.67
2023-05-20T21:08:48.269Z,7.60
2023-05-20T21:11:14.895Z,8.73
2023-05-20T21:13:41.449Z,10.27
2023-05-20T21:16:08.058Z,9.33
2023-05-20T21:18:34.602Z,10.27
2023-05-20T21:21:01.118Z,11.37
2023-05-20T21:23:27.805Z,10.13
2023-05-20T21:25:54.431Z,11.43
2023-05-20T21:28:21.014Z,9.33
2023-05-20T21:30:47.695Z,8.93
2023-05-20T21:33:14.282Z,17.77
2023-05-20T21:35:40.914Z,8.67
2023-05-20T21:38:07.509Z,8.77
2023-05-20T21:40:34.099Z,9.77
2023-05-20T21:43:00.650Z,9.07
2023-05-20T21:45:27.163Z,12.50
2023-05-20T21:47:53.721Z,9.40
2023-05-20T21:50:20.455Z,8.37
2023-05-20T21:52:46.985Z,10.90
2023-05-20T21:55:13.618Z,8.70
2023-05-20T21:57:40.186Z,10.37
2023-05-20T22:00:10.288Z,9.17
2023-05-20T22:02:37.490Z,10.37
2023-05-20T22:05:05.200Z,8.90
2023-05-20T22:07:33.129Z,10.80
2023-05-20T22:10:00.210Z,8.97
2023-05-20T22:12:27.817Z,10.17
2023-05-20T22:14:54.667Z,12.33
2023-05-20T22:17:21.885Z,9.87
2023-05-20T22:19:48.516Z,9.63
2023-05-20T22:22:17.580Z,8.60
2023-05-20T22:24:44.136Z,9.50
2023-05-20T22:27:10.798Z,9.17
2023-05-20T22:29:37.384Z,11.23
2023-05-20T22:32:04.094Z,12.37
2023-05-20T22:34:30.617Z,9.17
2023-05-20T22:36:58.231Z,9.83
2023-05-20T22:39:24.792Z,9.33
2023-05-20T22:41:51.402Z,9.43
2023-05-20T22:44:17.940Z,10.37
2023-05-20T22:46:44.460Z,10.90
2023-05-20T22:49:12.939Z,12.40
2023-05-20T22:51:39.548Z,9.60
2023-05-20T22:54:07.100Z,9.13
2023-05-20T22:56:34.346Z,12.27
2023-05-20T22:59:01.053Z,11.13
2023-05-20T23:01:28.116Z,11.13
2023-05-20T23:03:54.941Z,10.07
2023-05-20T23:06:22.817Z,10.10
2023-05-20T23:08:49.448Z,10.37
2023-05-20T23:11:16.109Z,13.77
2023-05-20T23:13:42.632Z,10.97
2023-05-20T23:16:09.614Z,13.33
2023-05-20T23:18:36.329Z,11.70
2023-05-20T23:21:02.921Z,10.70
2023-05-20T23:23:31.578Z,12.43
2023-05-20T23:25:59.074Z,9.23
2023-05-20T23:28:25.705Z,10.27
2023-05-20T23:30:52.253Z,10.33
2023-05-20T23:33:24.404Z,9.73
2023-05-20T23:35:52.019Z,9.37
2023-05-20T23:38:18.610Z,13.13
2023-05-20T23:40:45.154Z,9.73
2023-05-20T23:43:11.685Z,9.07
2023-05-20T23:45:38.319Z,11.10
2023-05-20T23:48:05.811Z,9.60
2023-05-20T23:50:32.930Z,9.17
2023-05-20T23:52:59.558Z,11.27
2023-05-20T23:55:26.306Z,8.50
2023-05-20T23:57:52.848Z,11.80
